Time;durP1;ratioP1;P1;durP2;ratioP2;P2;SDS_P1;SDS_P2;PMS_P1;PMS_P2;Temp;Humidity;BMP_temperature;BMP_pressure;BME280_temperature;BME280_humidity;BME280_pressure;Samples;Min_cycle;Max_cycle;Signal;HPM_P1;HPM_P2
2022/12/08 00:00:48;;;;;;;39.85;15.23;;;0.70;99.90;;;;;;5046976;28;20036;-64
2022/12/08 00:03:14;;;;;;;41.58;15.43;;;0.70;99.90;;;;;;5049631;28;20425;-64
2022/12/08 00:11:14;;;;;;;42.03;15.38;;;0.80;99.90;;;;;;5049518;28;20036;-65
2022/12/08 00:13:40;;;;;;;41.75;15.70;;;0.70;99.90;;;;;;5046859;28;20029;-65
2022/12/08 00:16:06;;;;;;;37.90;15.27;;;0.70;99.90;;;;;;5044953;28;20182;-65
2022/12/08 00:18:32;;;;;;;41.50;15.52;;;0.70;99.90;;;;;;5039917;28;20112;-64
2022/12/08 00:20:58;;;;;;;46.05;16.52;;;0.70;99.90;;;;;;5030192;28;20034;-64
2022/12/08 00:23:25;;;;;;;43.47;16.80;;;0.70;99.90;;;;;;5027771;28;20042;-65
2022/12/08 00:25:50;;;;;;;45.55;16.60;;;0.70;99.90;;;;;;5044754;28;20044;-65
2022/12/08 00:28:17;;;;;;;44.50;17.38;;;0.70;99.90;;;;;;5046708;28;20462;-65
2022/12/08 00:30:43;;;;;;;41.45;15.45;;;0.80;99.90;;;;;;5049215;28;20151;-64
2022/12/08 00:33:09;;;;;;;45.58;18.05;;;0.80;99.90;;;;;;5046063;28;20107;-65
2022/12/08 00:35:35;;;;;;;41.08;17.10;;;0.90;99.90;;;;;;5047096;28;20033;-64
2022/12/08 00:38:01;;;;;;;44.47;17.10;;;1.00;99.90;;;;;;5044141;28;20033;-65
2022/12/08 00:40:26;;;;;;;47.25;18.25;;;1.00;99.90;;;;;;5036507;28;20032;-65
2022/12/08 00:42:52;;;;;;;39.33;16.67;;;1.00;99.90;;;;;;5048732;28;20044;-64
2022/12/08 00:45:18;;;;;;;45.72;17.73;;;1.00;99.90;;;;;;5042494;28;20967;-65
2022/12/08 00:47:44;;;;;;;41.55;16.40;;;1.00;99.90;;;;;;5048535;28;20029;-64
2022/12/08 00:50:10;;;;;;;45.25;17.08;;;1.00;99.90;;;;;;5048574;28;20024;-65
2022/12/08 00:52:36;;;;;;;46.38;16.27;;;1.00;99.90;;;;;;5047696;28;20389;-65
2022/12/08 00:55:03;;;;;;;37.58;16.42;;;1.00;99.90;;;;;;5048162;28;20056;-65
2022/12/08 00:57:28;;;;;;;37.50;15.25;;;1.00;99.90;;;;;;5045858;28;20032;-65
2022/12/08 00:59:54;;;;;;;43.53;17.25;;;1.00;99.90;;;;;;5047791;28;20641;-65
2022/12/08 01:02:20;;;;;;;40.25;15.05;;;0.90;99.90;;;;;;5046449;28;20424;-65
2022/12/08 01:04:45;;;;;;;44.72;15.70;;;0.90;99.90;;;;;;5046626;28;20047;-64
2022/12/08 01:07:11;;;;;;;41.55;16.65;;;0.90;99.90;;;;;;5048482;28;20119;-64
2022/12/08 01:09:36;;;;;;;39.38;16.02;;;0.80;99.90;;;;;;5044286;28;20029;-64
2022/12/08 01:12:02;;;;;;;40.30;15.73;;;0.80;99.90;;;;;;5049108;28;20064;-64
2022/12/08 01:14:28;;;;;;;41.95;16.67;;;0.80;99.90;;;;;;5040540;28;20029;-65
2022/12/08 01:16:54;;;;;;;38.50;15.30;;;0.80;99.90;;;;;;5049070;28;20428;-62
2022/12/08 01:19:19;;;;;;;40.67;15.68;;;0.80;99.90;;;;;;5044306;28;20053;-64
2022/12/08 01:21:45;;;;;;;40.75;15.85;;;0.80;99.90;;;;;;5046602;28;20037;-65
2022/12/08 01:24:17;;;;;;;42.45;16.08;;;0.80;99.90;;;;;;5048205;28;20029;-64
2022/12/08 01:26:44;;;;;;;41.10;16.52;;;0.70;99.90;;;;;;5043381;28;20564;-64
2022/12/08 01:29:10;;;;;;;44.92;16.70;;;0.70;99.90;;;;;;5043138;28;20420;-65
2022/12/08 01:31:37;;;;;;;42.35;16.48;;;0.70;99.90;;;;;;5043322;28;20107;-65
2022/12/08 01:34:03;;;;;;;42.35;16.58;;;0.60;99.90;;;;;;5028851;28;20088;-63
2022/12/08 01:36:31;;;;;;;37.08;16.17;;;0.60;99.90;;;;;;5043278;28;20119;-63
2022/12/08 01:39:02;;;;;;;42.65;16.75;;;0.60;99.90;;;;;;5047388;28;20021;-64
2022/12/08 01:41:33;;;;;;;45.88;17.65;;;0.50;99.90;;;;;;5028200;28;20588;-64
2022/12/08 01:44:01;;;;;;;42.22;17.25;;;0.50;99.90;;;;;;5047114;28;20044;-65
2022/12/08 01:46:29;;;;;;;44.53;16.30;;;0.50;99.90;;;;;;5027051;28;20075;-65
2022/12/08 01:49:04;;;;;;;43.80;16.15;;;0.40;99.90;;;;;;5028551;28;20583;-64
2022/12/08 01:51:33;;;;;;;42.63;16.25;;;0.30;99.90;;;;;;5035522;28;20036;-64
2022/12/08 01:54:01;;;;;;;40.22;15.45;;;0.30;99.90;;;;;;5048366;28;20480;-65
2022/12/08 01:57:08;;;;;;;43.75;16.50;;;0.40;99.90;;;;;;5037501;28;20037;-65
2022/12/08 01:59:38;;;;;;;42.40;15.18;;;0.40;99.90;;;;;;5041370;28;20497;-65
2022/12/08 02:02:04;;;;;;;;;;;0.40;99.90;;;;;;5047943;28;20025;-65
2022/12/08 02:04:29;;;;;;;36.28;14.30;;;0.30;99.90;;;;;;5046014;28;19969;-65
2022/12/08 02:06:55;;;;;;;41.05;15.52;;;0.30;99.90;;;;;;5048434;28;20056;-64
2022/12/08 02:09:21;;;;;;;34.90;14.35;;;0.20;99.90;;;;;;5046561;28;20045;-64
2022/12/08 02:11:48;;;;;;;39.45;14.95;;;0.20;99.90;;;;;;5048733;28;20856;-64
2022/12/08 02:14:14;;;;;;;40.42;15.85;;;0.10;99.90;;;;;;5034559;28;20040;-65
2022/12/08 02:16:43;;;;;;;36.88;14.25;;;0.10;99.90;;;;;;5032527;28;20753;-65
2022/12/08 02:19:39;;;;;;;38.20;14.45;;;0.00;99.90;;;;;;5044943;28;20147;-64
2022/12/08 02:22:13;;;;;;;38.30;14.05;;;-0.10;99.90;;;;;;5044935;28;20045;-64
2022/12/08 02:24:57;;;;;;;38.60;13.85;;;-0.10;99.90;;;;;;5051962;28;20118;-63
2022/12/08 02:27:41;;;;;;;37.97;13.70;;;-0.20;99.90;;;;;;5031340;28;20041;-64
2022/12/08 02:30:07;;;;;;;36.67;14.02;;;-0.20;99.90;;;;;;5032182;28;20057;-65
2022/12/08 02:32:55;;;;;;;36.67;14.10;;;-0.30;99.90;;;;;;5049837;28;20680;-64
2022/12/08 02:35:20;;;;;;;38.35;14.38;;;-0.30;99.90;;;;;;5049567;28;20033;-65
2022/12/08 02:37:49;;;;;;;35.95;14.60;;;-0.40;99.90;;;;;;5052316;28;20027;-65
2022/12/08 02:40:27;;;;;;;37.58;14.38;;;-0.50;99.90;;;;;;5046585;28;20021;-65
2022/12/08 02:43:02;;;;;;;33.33;13.73;;;-0.50;99.90;;;;;;5012097;28;20115;-64
2022/12/08 02:45:35;;;;;;;34.80;14.60;;;-0.50;99.90;;;;;;5035454;28;20048;-63
2022/12/08 02:48:01;;;;;;;38.05;13.77;;;-0.50;99.90;;;;;;5050345;28;20052;-64
2022/12/08 02:50:27;;;;;;;35.33;15.02;;;-0.40;99.90;;;;;;5042488;28;20029;-64
2022/12/08 02:52:53;;;;;;;46.50;15.88;;;-0.40;99.90;;;;;;5051897;28;20086;-64
2022/12/08 02:55:33;;;;;;;34.63;14.40;;;-0.30;99.90;;;;;;5045687;28;20508;-63
2022/12/08 02:58:17;;;;;;;33.70;13.70;;;-0.30;99.90;;;;;;5051577;28;20492;-64
2022/12/08 03:00:56;;;;;;;36.55;14.32;;;-0.20;99.90;;;;;;5047458;28;20140;-64
2022/12/08 03:03:34;;;;;;;39.65;15.30;;;-0.20;99.90;;;;;;5049244;28;20082;-64
2022/12/08 03:05:59;;;;;;;37.80;15.63;;;-0.20;99.90;;;;;;5050510;28;20048;-64
2022/12/08 03:08:33;;;;;;;42.20;15.98;;;-0.30;99.90;;;;;;5046740;28;20029;-64
2022/12/08 03:11:09;;;;;;;35.70;14.43;;;-0.20;99.90;;;;;;5048840;28;20497;-64
2022/12/08 03:13:43;;;;;;;33.38;13.95;;;-0.20;99.90;;;;;;5047985;28;20681;-65
2022/12/08 03:16:13;;;;;;;35.80;14.80;;;-0.20;99.90;;;;;;5051660;28;20067;-65
2022/12/08 03:18:45;;;;;;;33.38;13.70;;;-0.20;99.90;;;;;;5049242;28;20047;-63
2022/12/08 03:21:14;;;;;;;36.15;14.40;;;-0.10;99.90;;;;;;5043007;28;20035;-63
2022/12/08 03:23:43;;;;;;;36.80;14.50;;;-0.20;99.90;;;;;;5050249;28;20055;-64
2022/12/08 03:26:18;;;;;;;37.60;13.18;;;-0.30;99.90;;;;;;5046222;28;20037;-64
2022/12/08 03:28:44;;;;;;;38.80;14.52;;;-0.30;99.90;;;;;;5051195;28;20025;-64
2022/12/08 03:31:13;;;;;;;36.42;13.63;;;-0.40;99.90;;;;;;5045687;28;20029;-64
2022/12/08 03:33:42;;;;;;;35.30;13.75;;;-0.50;99.90;;;;;;5050168;28;20450;-64
2022/12/08 03:36:10;;;;;;;31.20;13.23;;;-0.40;99.90;;;;;;5030378;28;20764;-65
2022/12/08 03:38:38;;;;;;;38.28;14.95;;;-0.40;99.90;;;;;;5040057;28;20024;-64
2022/12/08 03:41:19;;;;;;;37.10;14.07;;;-0.30;99.90;;;;;;5048581;28;20458;-65
2022/12/08 03:43:53;;;;;;;35.10;13.98;;;-0.30;99.90;;;;;;5050824;28;20087;-65
2022/12/08 03:46:21;;;;;;;36.65;14.55;;;-0.30;99.90;;;;;;5043169;28;20037;-65
2022/12/08 03:48:47;;;;;;;35.70;14.15;;;-0.40;99.90;;;;;;5050433;28;20106;-64
2022/12/08 03:51:14;;;;;;;39.58;14.85;;;-0.40;99.90;;;;;;5048809;28;20103;-64
2022/12/08 03:53:40;;;;;;;35.85;14.35;;;-0.30;99.90;;;;;;5050172;28;20120;-65
2022/12/08 03:56:31;;;;;;;37.85;15.32;;;-0.30;99.90;;;;;;5045092;28;20072;-65
2022/12/08 03:58:57;;;;;;;35.22;14.07;;;-0.30;99.90;;;;;;5044931;28;20049;-64
2022/12/08 04:01:24;;;;;;;39.83;15.80;;;-0.30;99.90;;;;;;5048351;28;20040;-64
2022/12/08 04:03:50;;;;;;;36.38;14.77;;;-0.30;99.90;;;;;;5049015;28;20497;-64
2022/12/08 04:06:16;;;;;;;37.97;14.68;;;-0.30;99.90;;;;;;5033666;28;20132;-65
2022/12/08 04:08:42;;;;;;;33.75;13.80;;;-0.30;99.90;;;;;;5045857;28;20025;-65
2022/12/08 04:11:08;;;;;;;33.05;13.07;;;-0.40;99.90;;;;;;5046721;28;20470;-64
2022/12/08 04:13:35;;;;;;;35.92;13.80;;;-0.50;99.90;;;;;;5033570;28;20551;-63
2022/12/08 04:16:02;;;;;;;39.55;14.40;;;-0.60;99.90;;;;;;5030116;28;20033;-63
2022/12/08 04:18:27;;;;;;;38.05;14.63;;;-0.60;99.90;;;;;;5029603;28;20034;-64
2022/12/08 04:20:53;;;;;;;35.72;14.48;;;-0.60;99.90;;;;;;5030445;28;20104;-64
2022/12/08 04:23:19;;;;;;;38.05;13.98;;;-0.60;99.90;;;;;;5029182;28;20556;-65
2022/12/08 04:25:44;;;;;;;36.35;14.48;;;-0.60;99.90;;;;;;5029948;28;20092;-65
2022/12/08 04:28:11;;;;;;;37.13;15.02;;;-0.50;99.90;;;;;;5030305;28;20370;-62
2022/12/08 04:30:38;;;;;;;38.75;15.15;;;-0.50;99.90;;;;;;5029143;28;20167;-64
2022/12/08 04:33:03;;;;;;;39.83;15.68;;;-0.40;99.90;;;;;;5029474;28;20113;-64
2022/12/08 04:35:29;;;;;;;38.72;14.73;;;-0.40;99.90;;;;;;5030306;28;20100;-64
2022/12/08 04:37:55;;;;;;;36.25;14.40;;;-0.30;99.90;;;;;;5029429;28;20425;-65
2022/12/08 04:40:20;;;;;;;39.17;14.95;;;-0.30;99.90;;;;;;5043161;28;20446;-64
2022/12/08 04:42:46;;;;;;;45.20;14.90;;;-0.20;99.90;;;;;;5028480;28;20038;-64
2022/12/08 04:45:12;;;;;;;34.30;14.55;;;-0.20;99.90;;;;;;5029623;28;20112;-65
2022/12/08 04:47:38;;;;;;;38.95;15.18;;;-0.10;99.90;;;;;;5027716;28;20037;-64
2022/12/08 04:50:05;;;;;;;35.45;14.55;;;-0.10;99.90;;;;;;5029601;28;20026;-63
2022/12/08 04:52:30;;;;;;;36.13;14.20;;;-0.10;99.90;;;;;;5043691;28;20378;-64
2022/12/08 04:54:56;;;;;;;39.42;15.50;;;0.00;99.90;;;;;;5046097;28;20040;-65
2022/12/08 04:57:22;;;;;;;39.25;14.45;;;0.00;99.90;;;;;;5026713;28;20037;-66
2022/12/08 04:59:47;;;;;;;33.15;12.65;;;-0.10;99.90;;;;;;5013797;28;20030;-64
2022/12/08 05:02:13;;;;;;;33.72;13.75;;;-0.30;99.90;;;;;;5035532;28;20033;-64
2022/12/08 05:04:39;;;;;;;35.40;13.38;;;-0.50;99.90;;;;;;5030167;28;20043;-65
2022/12/08 05:07:05;;;;;;;33.75;13.65;;;-0.60;99.90;;;;;;5047145;28;20110;-64
2022/12/08 05:09:30;;;;;;;34.75;13.18;;;-0.60;99.90;;;;;;5040949;28;20436;-64
2022/12/08 05:11:56;;;;;;;34.28;13.77;;;-0.60;99.90;;;;;;5026075;28;20033;-62
2022/12/08 05:14:22;;;;;;;37.10;13.68;;;-0.60;99.90;;;;;;5011550;28;20072;-65
2022/12/08 05:16:48;;;;;;;36.60;13.68;;;-0.50;99.90;;;;;;5025893;28;20083;-64
2022/12/08 05:19:14;;;;;;;37.40;14.30;;;-0.30;99.90;;;;;;5027851;28;20037;-64
2022/12/08 05:21:40;;;;;;;38.42;14.82;;;-0.20;99.90;;;;;;5027827;28;20431;-64
2022/12/08 05:24:06;;;;;;;36.30;14.75;;;-0.20;99.90;;;;;;5044456;28;20064;-64
2022/12/08 05:26:31;;;;;;;37.85;14.63;;;-0.10;99.90;;;;;;5048040;28;20040;-64
2022/12/08 05:28:57;;;;;;;33.53;14.25;;;-0.10;99.90;;;;;;5033691;28;20041;-63
2022/12/08 05:31:23;;;;;;;36.42;14.13;;;0.00;99.90;;;;;;5022072;28;20033;-66
2022/12/08 05:33:49;;;;;;;38.70;15.45;;;0.00;99.90;;;;;;5030717;28;20030;-66
2022/12/08 05:36:16;;;;;;;37.47;14.32;;;0.00;99.90;;;;;;5022674;28;20037;-68
2022/12/08 05:38:42;;;;;;;37.05;14.40;;;0.00;99.90;;;;;;5036612;28;20021;-67
2022/12/08 05:41:12;;;;;;;37.08;13.98;;;-0.10;99.90;;;;;;5033709;28;20025;-67
2022/12/08 05:43:38;;;;;;;35.45;13.60;;;-0.10;99.90;;;;;;5025857;28;20029;-68
2022/12/08 05:46:03;;;;;;;38.70;14.75;;;-0.20;99.90;;;;;;5025396;28;20037;-67
2022/12/08 05:48:29;;;;;;;37.58;14.25;;;-0.30;99.90;;;;;;5026977;28;20029;-67
2022/12/08 05:50:55;;;;;;;45.13;15.45;;;-0.40;99.90;;;;;;5021381;28;20582;-68
2022/12/08 05:53:20;;;;;;;39.20;14.90;;;-0.50;99.90;;;;;;5026396;28;20398;-67
2022/12/08 05:55:46;;;;;;;36.55;14.70;;;-0.50;99.90;;;;;;5033681;28;20108;-66
2022/12/08 05:58:18;;;;;;;41.10;15.93;;;-0.50;99.90;;;;;;5038667;28;20048;-65
2022/12/08 06:00:45;;;;;;;39.38;15.75;;;-0.60;99.90;;;;;;5035440;28;20036;-65
2022/12/08 06:03:12;;;;;;;52.28;19.95;;;-0.60;99.90;;;;;;5037869;28;20029;-65
2022/12/08 06:05:39;;;;;;;44.58;17.10;;;-0.70;99.90;;;;;;5039056;28;20072;-65
2022/12/08 06:08:04;;;;;;;43.13;16.65;;;-0.70;99.90;;;;;;5037110;28;20017;-68
2022/12/08 06:10:30;;;;;;;40.67;16.75;;;-0.70;99.90;;;;;;5039623;28;20545;-66
2022/12/08 06:12:56;;;;;;;39.63;15.75;;;-0.70;99.90;;;;;;5024687;28;20036;-68
2022/12/08 06:15:21;;;;;;;42.10;16.20;;;-0.70;99.90;;;;;;5024423;28;20246;-68
2022/12/08 06:17:47;;;;;;;40.63;15.20;;;-0.70;99.90;;;;;;5034739;28;20100;-67
2022/12/08 06:20:12;;;;;;;38.88;15.13;;;-0.70;99.90;;;;;;5036828;28;20044;-67
2022/12/08 06:22:38;;;;;;;40.83;15.07;;;-0.70;99.90;;;;;;5023722;28;20077;-68
2022/12/08 06:25:05;;;;;;;36.75;14.80;;;-0.80;99.90;;;;;;5029867;28;20080;-68
2022/12/08 06:27:32;;;;;;;36.25;14.57;;;-0.80;99.90;;;;;;5035836;28;20033;-65
2022/12/08 06:29:58;;;;;;;39.72;14.48;;;-0.90;99.90;;;;;;5031876;28;21326;-68
2022/12/08 06:32:23;;;;;;;37.88;14.43;;;-0.90;99.90;;;;;;5036341;28;20474;-68
2022/12/08 06:34:49;;;;;;;36.97;14.63;;;-0.90;99.90;;;;;;5025558;28;20717;-68
2022/12/08 06:37:15;;;;;;;35.90;14.27;;;-0.90;99.90;;;;;;5046328;28;20068;-67
2022/12/08 06:39:40;;;;;;;39.50;15.48;;;-0.90;99.90;;;;;;5040053;28;20421;-68
2022/12/08 06:44:51;;;;;;;41.50;16.13;;;-0.90;99.90;;;;;;5030135;28;20143;-68
2022/12/08 06:47:16;;;;;;;37.80;14.77;;;-0.90;99.90;;;;;;5031917;28;20104;-68
2022/12/08 06:49:42;;;;;;;41.30;15.07;;;-0.90;99.90;;;;;;5038902;28;20037;-68
2022/12/08 06:52:07;;;;;;;35.60;13.93;;;-0.90;99.90;;;;;;5037579;28;20397;-69
2022/12/08 06:54:33;;;;;;;39.97;14.40;;;-0.90;99.90;;;;;;5030763;28;20040;-67
2022/12/08 06:56:59;;;;;;;38.95;14.55;;;-1.00;99.90;;;;;;5033558;28;20492;-68
2022/12/08 06:59:27;;;;;;;34.72;13.90;;;-1.10;99.90;;;;;;5043167;28;20029;-67
2022/12/08 07:01:53;;;;;;;35.33;14.07;;;-1.10;99.90;;;;;;5031398;28;20409;-68
2022/12/08 07:04:19;;;;;;;39.13;15.10;;;-1.20;99.90;;;;;;5035676;28;20025;-68
2022/12/08 07:06:44;;;;;;;43.70;16.42;;;-1.30;99.90;;;;;;5027868;28;20092;-67
2022/12/08 07:09:10;;;;;;;59.28;20.83;;;-1.20;99.90;;;;;;5030003;28;20116;-67
2022/12/08 07:11:38;;;;;;;68.78;23.42;;;-1.20;99.90;;;;;;5041001;28;20082;-67
2022/12/08 07:14:03;;;;;;;55.08;20.33;;;-1.20;99.90;;;;;;5031024;28;20500;-66
2022/12/08 07:16:29;;;;;;;51.00;18.30;;;-1.30;99.90;;;;;;5039045;28;20068;-69
2022/12/08 07:18:54;;;;;;;45.10;18.23;;;-1.30;99.90;;;;;;5037040;28;20496;-68
2022/12/08 07:21:20;;;;;;;44.40;17.33;;;-1.30;99.90;;;;;;5043019;28;20036;-68
2022/12/08 07:23:49;;;;;;;43.85;18.13;;;-1.30;99.90;;;;;;5047491;28;20045;-68
2022/12/08 07:26:15;;;;;;;40.95;17.48;;;-1.20;99.90;;;;;;5043633;28;20444;-68
2022/12/08 07:28:41;;;;;;;40.60;17.17;;;-1.20;99.90;;;;;;5034559;28;20033;-67
2022/12/08 07:31:16;;;;;;;43.58;16.70;;;-1.20;99.90;;;;;;5032912;28;20531;-67
2022/12/08 07:33:42;;;;;;;43.50;16.50;;;-1.20;99.90;;;;;;5032280;28;20031;-68
2022/12/08 07:36:08;;;;;;;45.03;16.77;;;-1.10;99.90;;;;;;5030035;28;20036;-68
2022/12/08 07:38:33;;;;;;;48.35;17.42;;;-1.10;99.90;;;;;;5019414;28;20046;-66
2022/12/08 07:40:59;;;;;;;44.25;17.45;;;-1.00;99.90;;;;;;5028661;28;20041;-68
2022/12/08 07:43:25;;;;;;;46.90;18.25;;;-1.00;99.90;;;;;;5048515;28;20104;-68
2022/12/08 07:45:50;;;;;;;36.72;14.60;;;-1.10;99.90;;;;;;5038670;28;20040;-67
2022/12/08 07:48:16;;;;;;;38.03;14.65;;;-1.20;99.90;;;;;;5050828;28;20021;-67
2022/12/08 07:50:42;;;;;;;41.38;16.00;;;-1.30;99.90;;;;;;5034889;28;20033;-67
2022/12/08 07:53:11;;;;;;;42.25;16.48;;;-1.30;99.90;;;;;;5048415;28;20087;-67
2022/12/08 07:55:41;;;;;;;38.22;14.95;;;-1.20;99.90;;;;;;5028153;28;20077;-67
2022/12/08 07:58:07;;;;;;;40.13;16.15;;;-1.10;99.90;;;;;;5029434;28;20467;-67
2022/12/08 08:00:33;;;;;;;37.45;14.93;;;-1.10;99.90;;;;;;5028020;28;20116;-68
2022/12/08 08:02:58;;;;;;;41.85;16.13;;;-1.00;99.90;;;;;;5046792;28;20563;-67
2022/12/08 08:05:24;;;;;;;40.00;16.00;;;-0.90;99.90;;;;;;5028204;28;20497;-68
2022/12/08 08:07:50;;;;;;;44.83;17.17;;;-0.90;99.90;;;;;;5032690;28;20029;-68
2022/12/08 08:10:16;;;;;;;44.80;17.55;;;-0.80;99.90;;;;;;5030159;28;20111;-68
2022/12/08 08:12:41;;;;;;;48.97;17.92;;;-0.70;99.90;;;;;;5027579;28;20542;-68
2022/12/08 08:15:08;;;;;;;43.85;16.67;;;-0.70;99.90;;;;;;5039787;28;20033;-68
2022/12/08 08:17:35;;;;;;;43.92;16.65;;;-0.60;99.90;;;;;;5026458;28;20096;-70
2022/12/08 08:20:02;;;;;;;46.10;17.08;;;-0.70;99.90;;;;;;5023199;28;20151;-67
2022/12/08 08:22:28;;;;;;;43.97;17.13;;;-0.60;99.90;;;;;;5042589;28;20394;-68
2022/12/08 08:24:54;;;;;;;50.25;18.20;;;-0.50;99.90;;;;;;5029240;28;20029;-67
2022/12/08 08:27:20;;;;;;;43.22;17.52;;;-0.40;99.90;;;;;;5023355;28;20044;-68
2022/12/08 08:29:45;;;;;;;45.38;17.48;;;-0.30;99.90;;;;;;5024489;28;20034;-68
2022/12/08 08:32:11;;;;;;;42.40;16.38;;;-0.30;99.90;;;;;;5023238;28;20025;-68
2022/12/08 08:34:37;;;;;;;42.75;16.67;;;-0.20;99.90;;;;;;5027693;28;20050;-69
2022/12/08 08:37:03;;;;;;;42.67;17.15;;;-0.20;99.90;;;;;;5042459;28;20037;-69
2022/12/08 08:39:30;;;;;;;42.28;16.75;;;-0.10;99.90;;;;;;5048258;28;20032;-69
2022/12/08 08:41:56;;;;;;;40.55;16.20;;;-0.10;99.90;;;;;;5033347;28;20055;-68
2022/12/08 08:44:22;;;;;;;45.38;17.15;;;-0.10;99.90;;;;;;5034769;28;20474;-68
2022/12/08 08:46:47;;;;;;;40.60;16.25;;;0.00;99.90;;;;;;5040778;28;20098;-68
2022/12/08 08:49:13;;;;;;;38.33;16.50;;;0.00;99.90;;;;;;5038426;28;20490;-67
2022/12/08 08:51:39;;;;;;;46.40;16.55;;;0.10;99.90;;;;;;5032114;28;20432;-69
2022/12/08 08:54:04;;;;;;;41.03;16.52;;;0.20;99.90;;;;;;5047912;28;20037;-68
2022/12/08 08:56:30;;;;;;;39.17;15.93;;;0.40;99.90;;;;;;5042820;28;20425;-69
2022/12/08 08:58:56;;;;;;;37.00;15.38;;;0.50;99.90;;;;;;5030624;28;20037;-67
2022/12/08 09:01:25;;;;;;;36.40;14.57;;;0.60;99.90;;;;;;5029853;28;20037;-68
2022/12/08 09:03:50;;;;;;;36.90;14.10;;;0.60;99.90;;;;;;5027084;28;20092;-67
2022/12/08 09:06:17;;;;;;;38.08;15.75;;;0.70;99.90;;;;;;5034071;28;20033;-69
2022/12/08 09:08:43;;;;;;;38.85;14.27;;;0.80;99.90;;;;;;5046775;28;20029;-65
2022/12/08 09:11:10;;;;;;;31.92;12.73;;;0.90;99.90;;;;;;5038206;28;20051;-69
2022/12/08 09:13:36;;;;;;;33.42;12.75;;;0.90;99.90;;;;;;5023904;28;20033;-69
2022/12/08 09:16:03;;;;;;;34.92;12.48;;;1.10;99.90;;;;;;5033512;28;20090;-67
2022/12/08 09:18:29;;;;;;;31.33;12.90;;;1.10;99.90;;;;;;5048074;28;20055;-67
2022/12/08 09:20:54;;;;;;;29.58;12.45;;;1.10;99.90;;;;;;5030473;28;20033;-69
2022/12/08 09:23:20;;;;;;;32.92;12.30;;;1.10;99.90;;;;;;5037349;28;20053;-69
2022/12/08 09:25:46;;;;;;;31.85;12.48;;;1.10;99.90;;;;;;5037018;28;20045;-68
2022/12/08 09:28:12;;;;;;;33.38;12.70;;;1.10;99.90;;;;;;5044111;28;20180;-68
2022/12/08 09:30:39;;;;;;;34.00;12.90;;;1.10;99.90;;;;;;5038575;28;20029;-70
2022/12/08 09:33:04;;;;;;;30.65;12.88;;;1.20;99.90;;;;;;5048744;28;20724;-66
2022/12/08 09:35:30;;;;;;;33.22;13.27;;;1.20;99.90;;;;;;5041779;28;20112;-69
2022/12/08 09:37:56;;;;;;;33.13;12.85;;;1.20;99.90;;;;;;5027894;28;20013;-68
2022/12/08 09:40:24;;;;;;;31.50;12.23;;;1.20;99.90;;;;;;5012881;28;20030;-68
2022/12/08 09:42:53;;;;;;;32.08;12.82;;;1.30;99.90;;;;;;5039411;28;20516;-69
2022/12/08 09:45:21;;;;;;;32.80;12.60;;;1.30;99.90;;;;;;5039246;28;20045;-69
2022/12/08 09:47:56;;;;;;;33.15;12.55;;;1.40;99.90;;;;;;5029904;28;20067;-70
2022/12/08 09:50:39;;;;;;;31.40;12.38;;;1.40;99.90;;;;;;5046115;28;20025;-67
2022/12/08 09:53:13;;;;;;;32.10;12.88;;;1.50;99.90;;;;;;5046609;28;20048;-67
2022/12/08 09:55:51;;;;;;;28.52;12.25;;;1.60;99.90;;;;;;5042392;28;20112;-69
2022/12/08 09:58:39;;;;;;;30.38;11.98;;;1.70;99.90;;;;;;5048114;28;20111;-66
2022/12/08 10:01:09;;;;;;;31.25;12.27;;;1.80;99.90;;;;;;5025694;28;20037;-68
2022/12/08 10:03:35;;;;;;;32.92;12.27;;;1.80;99.90;;;;;;5028385;28;20025;-70
2022/12/08 10:06:17;;;;;;;29.60;12.20;;;1.80;99.90;;;;;;5030953;28;20048;-71
2022/12/08 10:09:09;;;;;;;28.42;12.15;;;1.80;99.90;;;;;;5042493;28;20029;-68
2022/12/08 10:11:50;;;;;;;30.15;12.00;;;1.80;99.90;;;;;;5040270;28;20635;-68
2022/12/08 10:14:15;;;;;;;30.15;12.40;;;1.70;99.90;;;;;;5041147;28;20025;-69
2022/12/08 10:16:46;;;;;;;32.30;12.40;;;1.80;99.90;;;;;;5027074;28;20036;-71
2022/12/08 10:19:11;;;;;;;30.42;13.20;;;1.90;99.90;;;;;;5035605;28;20029;-67
2022/12/08 10:21:38;;;;;;;30.25;12.13;;;2.00;99.90;;;;;;5040661;28;20114;-70
2022/12/08 10:24:28;;;;;;;36.55;12.50;;;1.90;99.90;;;;;;5047156;28;20037;-68
2022/12/08 10:26:55;;;;;;;32.05;12.15;;;1.90;99.90;;;;;;5041111;28;20414;-69
2022/12/08 10:29:20;;;;;;;32.55;12.95;;;2.00;99.90;;;;;;5041839;28;20474;-66
2022/12/08 10:31:46;;;;;;;36.65;13.02;;;2.20;99.90;;;;;;5034084;28;20033;-67
2022/12/08 10:34:23;;;;;;;30.52;12.82;;;2.30;99.90;;;;;;5033087;28;20536;-68
2022/12/08 10:36:57;;;;;;;28.70;12.13;;;2.40;99.90;;;;;;5039379;28;20028;-70
2022/12/08 10:39:38;;;;;;;30.02;11.82;;;2.60;99.90;;;;;;5030159;28;20502;-69
2022/12/08 10:42:13;;;;;;;29.10;11.50;;;2.60;99.90;;;;;;5050059;28;20065;-67
2022/12/08 10:44:53;;;;;;;26.67;10.00;;;2.50;99.90;;;;;;5048040;28;20153;-70
2022/12/08 10:47:24;;;;;;;25.23;10.40;;;2.60;99.90;;;;;;5040343;28;20044;-68
2022/12/08 10:50:08;;;;;;;;;;;2.50;99.90;;;;;;5048365;28;20041;-67
2022/12/08 10:52:40;;;;;;;23.27;9.27;;;2.70;99.90;;;;;;5046647;28;20019;-68
2022/12/08 10:55:17;;;;;;;26.55;9.82;;;2.90;99.90;;;;;;5049160;28;20103;-66
2022/12/08 10:57:43;;;;;;;22.02;8.88;;;2.90;99.90;;;;;;5051202;28;20061;-68
2022/12/08 11:00:18;;;;;;;18.83;8.15;;;2.90;99.90;;;;;;5040054;28;20065;-69
2022/12/08 11:02:56;;;;;;;22.60;9.73;;;2.80;99.90;;;;;;5030288;28;20997;-72
2022/12/08 11:05:25;;;;;;;23.35;8.40;;;3.00;99.90;;;;;;5050557;28;20469;-67
2022/12/08 11:07:53;;;;;;;20.50;8.43;;;3.10;99.90;;;;;;5035220;28;20036;-68
2022/12/08 11:10:25;;;;;;;18.25;8.23;;;3.00;99.90;;;;;;5051219;28;20092;-69
2022/12/08 11:12:51;;;;;;;22.60;7.95;;;3.10;99.90;;;;;;5047468;28;20112;-68
2022/12/08 11:15:17;;;;;;;25.13;9.20;;;3.20;99.90;;;;;;5044140;28;20155;-67
2022/12/08 11:17:48;;;;;;;21.92;8.52;;;3.20;99.90;;;;;;5037011;28;20036;-70
2022/12/08 11:20:13;;;;;;;22.77;9.15;;;3.40;99.90;;;;;;5038693;28;20033;-68
2022/12/08 11:22:54;;;;;;;18.80;7.95;;;3.70;99.90;;;;;;5033687;28;20056;-68
2022/12/08 11:25:25;;;;;;;19.98;8.57;;;3.70;99.90;;;;;;5051134;28;20037;-68
2022/12/08 11:27:55;;;;;;;20.35;8.30;;;3.70;99.90;;;;;;5043533;28;20044;-68
2022/12/08 11:30:35;;;;;;;15.30;5.70;;;3.40;99.90;;;;;;5034102;28;20033;-67
2022/12/08 11:33:12;;;;;;;13.80;5.50;;;3.20;99.90;;;;;;5040892;28;20932;-66
2022/12/08 11:35:41;;;;;;;12.55;5.03;;;3.10;99.90;;;;;;5048182;28;20040;-67
2022/12/08 11:38:20;;;;;;;11.88;5.78;;;3.00;99.90;;;;;;5036955;28;20163;-67
2022/12/08 11:40:51;;;;;;;17.77;7.10;;;2.80;99.90;;;;;;5044233;28;20108;-68
2022/12/08 11:43:34;;;;;;;16.80;6.07;;;2.80;99.90;;;;;;5049899;28;20033;-67
2022/12/08 11:46:08;;;;;;;14.73;6.82;;;2.80;99.90;;;;;;5044333;28;20051;-66
2022/12/08 11:48:45;;;;;;;16.38;6.45;;;2.80;99.90;;;;;;5038527;28;20090;-68
2022/12/08 11:51:16;;;;;;;18.88;6.75;;;2.90;99.90;;;;;;5037994;28;20036;-65
2022/12/08 11:53:41;;;;;;;15.43;6.60;;;3.00;99.90;;;;;;5049338;28;20108;-65
2022/12/08 11:56:28;;;;;;;13.48;5.90;;;3.30;99.90;;;;;;5046779;28;20140;-67
2022/12/08 11:59:08;;;;;;;11.60;5.43;;;3.90;99.90;;;;;;5029417;28;20033;-67
2022/12/08 12:01:35;;;;;;;13.50;5.88;;;3.90;99.90;;;;;;5029319;28;20102;-67
2022/12/08 12:04:09;;;;;;;14.57;5.53;;;3.50;99.90;;;;;;5022860;28;20044;-68
2022/12/08 12:06:58;;;;;;;16.35;6.10;;;3.40;99.90;;;;;;5026681;28;20060;-66
2022/12/08 12:09:55;;;;;;;14.60;5.60;;;3.20;99.90;;;;;;5024638;28;20482;-68
2022/12/08 12:12:36;;;;;;;13.40;6.25;;;3.10;99.90;;;;;;5042290;28;20065;-70
2022/12/08 12:15:35;;;;;;;13.02;5.50;;;3.00;99.90;;;;;;5039154;28;20024;-67
2022/12/08 12:18:11;;;;;;;10.73;5.22;;;3.00;99.90;;;;;;5032221;28;20037;-66
2022/12/08 12:21:03;;;;;;;12.85;5.00;;;3.00;99.90;;;;;;5046619;28;20053;-65
2022/12/08 12:23:36;;;;;;;12.38;5.47;;;3.20;99.90;;;;;;5041578;28;20042;-67
2022/12/08 12:26:06;;;;;;;13.20;5.85;;;3.30;99.90;;;;;;5049236;28;20123;-67
2022/12/08 12:28:37;;;;;;;13.38;5.53;;;3.30;99.90;;;;;;5046825;28;20047;-65
2022/12/08 12:31:10;;;;;;;12.82;5.32;;;3.30;99.90;;;;;;5044656;28;20040;-66
2022/12/08 12:33:37;;;;;;;13.02;5.40;;;3.30;99.90;;;;;;5028970;28;20029;-66
2022/12/08 12:36:06;;;;;;;14.25;5.88;;;3.30;99.90;;;;;;5046818;28;20044;-67
2022/12/08 12:41:43;;;;;;;14.48;6.45;;;3.10;99.90;;;;;;5046427;28;20078;-66
2022/12/08 12:44:12;;;;;;;16.38;6.72;;;3.00;99.90;;;;;;5023145;28;20025;-68
2022/12/08 12:46:49;;;;;;;14.35;6.60;;;3.00;99.90;;;;;;5045987;28;20032;-67
2022/12/08 12:49:48;;;;;;;15.93;6.28;;;3.00;99.90;;;;;;5047480;28;20033;-67
2022/12/08 12:52:19;;;;;;;14.70;5.95;;;3.10;99.90;;;;;;5042396;28;20036;-68
2022/12/08 12:54:48;;;;;;;15.27;6.93;;;3.10;99.90;;;;;;5046936;28;20166;-67